Terminal Aerodrome Forecast
Issued by NWS Jackson, KY

Home | Current Version | Previous Version | Text Only | Print | Product List | Glossary On
Versions: 1 2 3 4 5 6 7 8 9 10 11 12 13 14 15 16 17 18 19
000
FTUS43 KJKL 041120
TAFJKL
TAF
KJKL 041120Z 0412/0512 25004KT P6SM SCT035 OVC080
     FM041300 26005KT P6SM FEW080 SCT150
     FM041900 24007KT 5SM -SHRA BR VCTS SCT030CB OVC060
     FM050000 26005KT 5SM BR OVC015
     FM050200 29006KT 2SM BR OVC004=

USA.gov is the U.S. government's official web portal to all federal, state and local government web resources and services.